Time;durP1;ratioP1;P1;durP2;ratioP2;P2;SDS_P1;SDS_P2;PMS_P1;PMS_P2;Temp;Humidity;BMP_temperature;BMP_pressure;BME280_temperature;BME280_humidity;BME280_pressure;Samples;Min_cycle;Max_cycle;Signal;HPM_P1;HPM_P2
2022/05/23 00:02:06;;;;;;;5.22;3.05;;;16.50;99.90;;;;;;5029345;28;20050;-67
2022/05/23 00:04:34;;;;;;;4.65;2.78;;;16.50;99.90;;;;;;5029662;28;20397;-68
2022/05/23 00:07:02;;;;;;;6.68;3.45;;;16.50;99.90;;;;;;5030083;28;20126;-68
2022/05/23 00:09:30;;;;;;;5.82;2.55;;;16.50;99.90;;;;;;5027260;28;20124;-68
2022/05/23 00:11:57;;;;;;;6.47;2.60;;;16.50;99.90;;;;;;5030254;28;20073;-66
2022/05/23 00:14:24;;;;;;;5.88;3.10;;;16.50;99.90;;;;;;5003764;28;20454;-68
2022/05/23 00:16:52;;;;;;;8.95;3.35;;;16.40;99.90;;;;;;5028260;28;20570;-68
2022/05/23 00:19:19;;;;;;;6.18;2.90;;;16.50;99.90;;;;;;5029385;28;20637;-68
2022/05/23 00:21:47;;;;;;;7.18;3.30;;;16.50;99.90;;;;;;5029921;28;20076;-68
2022/05/23 00:24:15;;;;;;;6.10;3.28;;;16.50;99.90;;;;;;5029500;28;20034;-67
2022/05/23 00:26:46;;;;;;;6.03;2.95;;;16.50;99.90;;;;;;5024917;28;20083;-67
2022/05/23 00:29:14;;;;;;;6.47;3.08;;;16.50;99.90;;;;;;5036631;28;20052;-67
2022/05/23 00:35:17;;;;;;;5.85;2.90;;;16.50;99.90;;;;;;5036646;28;20539;-67
2022/05/23 00:37:34;;;;;;;5.53;2.80;;;16.50;99.90;;;;;;5046418;28;20092;-67
2022/05/23 00:40:04;;;;;;;6.40;3.08;;;16.50;99.90;;;;;;5033572;28;20049;-67
2022/05/23 00:45:19;;;;;;;6.45;3.15;;;16.40;99.90;;;;;;5029332;28;20056;-67
2022/05/23 00:47:48;;;;;;;6.70;3.20;;;16.40;99.90;;;;;;5053798;28;20458;-67
2022/05/23 00:50:17;;;;;;;7.03;2.97;;;16.30;99.90;;;;;;5022804;28;20055;-67
2022/05/23 00:52:56;;;;;;;4.55;2.80;;;16.20;99.90;;;;;;5042574;28;20226;-67
2022/05/23 00:55:27;;;;;;;4.82;3.08;;;16.10;99.90;;;;;;5031065;28;20477;-67
2022/05/23 00:58:19;;;;;;;6.15;3.53;;;16.00;99.90;;;;;;5020933;28;20500;-67
2022/05/23 01:00:46;;;;;;;6.07;3.13;;;15.90;99.90;;;;;;5056247;28;20049;-67
2022/05/23 01:03:17;;;;;;;7.10;3.67;;;15.80;99.90;;;;;;5032105;28;20455;-67
2022/05/23 01:05:45;;;;;;;6.93;3.67;;;15.80;99.90;;;;;;5033118;28;20063;-67
2022/05/23 01:08:16;;;;;;;6.55;3.58;;;15.80;99.90;;;;;;5018728;28;20563;-67
2022/05/23 01:10:45;;;;;;;5.68;3.10;;;15.70;99.90;;;;;;5008717;28;20512;-67
2022/05/23 01:13:16;;;;;;;7.63;3.40;;;15.70;99.90;;;;;;5020448;28;20037;-67
2022/05/23 01:15:46;;;;;;;6.80;3.28;;;15.70;99.90;;;;;;5027141;28;20072;-67
2022/05/23 01:18:15;;;;;;;6.00;3.08;;;15.70;99.90;;;;;;5027849;28;20045;-67
2022/05/23 01:20:46;;;;;;;6.22;3.25;;;15.70;99.90;;;;;;5029224;28;20045;-67
2022/05/23 01:23:31;;;;;;;6.18;3.58;;;15.70;99.90;;;;;;5029416;28;20551;-68
2022/05/23 01:26:17;;;;;;;5.68;3.17;;;15.60;99.90;;;;;;5028562;28;20519;-67
2022/05/23 01:28:51;;;;;;;;;;;15.60;99.90;;;;;;5015109;28;20046;-67
2022/05/23 01:31:37;;;;;;;6.82;3.85;;;15.50;99.90;;;;;;5035054;28;20280;-67
2022/05/23 01:34:15;;;;;;;8.65;3.20;;;15.40;99.90;;;;;;5027119;28;20041;-67
2022/05/23 01:36:55;;;;;;;7.82;3.13;;;15.40;99.90;;;;;;5013991;28;20562;-67
2022/05/23 01:39:25;;;;;;;6.90;3.70;;;15.30;99.90;;;;;;5033819;28;20068;-67
2022/05/23 01:41:53;;;;;;;8.30;3.72;;;15.30;99.90;;;;;;5026083;28;20453;-66
2022/05/23 01:44:20;;;;;;;7.30;3.33;;;15.20;99.90;;;;;;5024429;28;20079;-66
2022/05/23 01:47:21;;;;;;;7.47;3.80;;;15.20;99.90;;;;;;5023457;28;20053;-67
2022/05/23 01:49:51;;;;;;;9.32;3.63;;;15.10;99.90;;;;;;5040787;28;20048;-67
2022/05/23 01:52:45;;;;;;;6.22;3.22;;;15.10;99.90;;;;;;5027590;28;20085;-67
2022/05/23 01:55:17;;;;;;;6.75;3.50;;;15.10;99.90;;;;;;5035196;28;20038;-67
2022/05/23 02:01:13;;;;;;;5.05;3.45;;;15.10;99.90;;;;;;5027493;28;20542;-67
2022/05/23 02:01:14;;;;;;;5.65;3.60;;;15.00;99.90;;;;;;5026343;28;20037;-67
2022/05/23 02:03:49;;;;;;;6.43;3.55;;;15.00;99.90;;;;;;5026884;28;20514;-67
2022/05/23 02:06:18;;;;;;;7.50;4.10;;;15.00;99.90;;;;;;5012731;28;20485;-67
2022/05/23 02:08:49;;;;;;;6.10;3.67;;;15.00;99.90;;;;;;5026158;28;20072;-67
2022/05/23 02:11:19;;;;;;;9.52;4.43;;;14.90;99.90;;;;;;5026516;28;20508;-67
2022/05/23 02:13:46;;;;;;;7.72;4.15;;;14.90;99.90;;;;;;5025343;28;20038;-66
2022/05/23 02:16:24;;;;;;;11.05;6.57;;;14.90;99.90;;;;;;5026382;28;20548;-67
2022/05/23 02:18:54;;;;;;;10.30;4.93;;;14.90;99.90;;;;;;5028537;28;20038;-67
2022/05/23 02:21:21;;;;;;;7.88;4.68;;;14.90;99.90;;;;;;5025080;28;20048;-67
2022/05/23 02:23:48;;;;;;;10.32;4.30;;;14.90;99.90;;;;;;5030246;28;20058;-67
2022/05/23 02:26:16;;;;;;;7.57;3.90;;;14.90;99.90;;;;;;5039627;28;20045;-67
2022/05/23 02:28:55;;;;;;;7.93;3.40;;;15.00;99.90;;;;;;5035587;28;20044;-67
2022/05/23 02:31:26;;;;;;;6.72;3.75;;;15.00;99.90;;;;;;5034686;28;20050;-66
2022/05/23 02:33:57;;;;;;;5.95;3.78;;;15.00;99.90;;;;;;5033843;28;20038;-67
2022/05/23 02:36:31;;;;;;;5.72;3.80;;;15.00;99.90;;;;;;5032416;28;20046;-67
2022/05/23 02:39:01;;;;;;;6.22;4.47;;;15.00;99.90;;;;;;5026992;28;20034;-67
2022/05/23 02:41:28;;;;;;;7.82;4.47;;;15.00;99.90;;;;;;5037155;28;20048;-67
2022/05/23 02:43:57;;;;;;;6.85;3.90;;;15.00;99.90;;;;;;5033076;28;20099;-68
2022/05/23 02:46:26;;;;;;;9.45;4.50;;;15.00;99.90;;;;;;5033457;28;20342;-67
2022/05/23 02:48:59;;;;;;;6.72;4.70;;;15.00;99.90;;;;;;5027852;28;20369;-67
2022/05/23 02:51:26;;;;;;;5.68;4.03;;;14.90;99.90;;;;;;5035104;28;20573;-67
2022/05/23 02:53:56;;;;;;;8.82;4.65;;;14.90;99.90;;;;;;5033126;28;20048;-67
2022/05/23 02:56:28;;;;;;;;;;;14.90;99.90;;;;;;5022803;28;20512;-67
2022/05/23 02:58:55;;;;;;;6.32;4.43;;;14.90;99.90;;;;;;5033525;28;19960;-67
2022/05/23 03:01:23;;;;;;;9.45;4.22;;;14.90;99.90;;;;;;5027513;28;20420;-67
2022/05/23 03:03:51;;;;;;;8.10;4.18;;;14.80;99.90;;;;;;5024122;28;20186;-67
2022/05/23 03:06:19;;;;;;;8.70;4.78;;;14.90;99.90;;;;;;5014630;28;20083;-67
2022/05/23 03:08:46;;;;;;;9.38;5.55;;;14.80;99.90;;;;;;5026046;28;20092;-67
2022/05/23 03:11:13;;;;;;;7.78;4.38;;;14.80;99.90;;;;;;5027746;28;20525;-67
2022/05/23 03:13:41;;;;;;;7.70;5.50;;;14.80;99.90;;;;;;5031065;28;20477;-66
2022/05/23 03:16:13;;;;;;;7.35;4.65;;;14.70;99.90;;;;;;5033742;28;20037;-68
2022/05/23 03:18:43;;;;;;;7.20;4.63;;;14.70;99.90;;;;;;5014951;28;20049;-67
2022/05/23 03:26:58;;;;;;;7.57;4.80;;;14.70;99.90;;;;;;5028061;28;20041;-67
2022/05/23 03:26:59;;;;;;;5.53;3.97;;;14.70;99.90;;;;;;5021316;28;20060;-66
2022/05/23 03:29:32;;;;;;;10.75;5.28;;;14.60;99.90;;;;;;5021805;28;20507;-68
2022/05/23 03:31:59;;;;;;;12.25;7.20;;;14.70;99.90;;;;;;5031096;28;20128;-69
2022/05/23 03:34:27;;;;;;;8.52;4.80;;;14.70;99.90;;;;;;5025094;28;20128;-67
2022/05/23 03:36:54;;;;;;;8.50;4.63;;;14.70;99.90;;;;;;5031663;28;20037;-66
2022/05/23 03:39:22;;;;;;;7.30;4.78;;;14.70;99.90;;;;;;5030640;28;20477;-67
2022/05/23 03:41:53;;;;;;;8.38;4.25;;;14.70;99.90;;;;;;5031139;28;20052;-67
2022/05/23 03:44:20;;;;;;;6.20;3.72;;;14.60;99.90;;;;;;5038569;28;20053;-67
2022/05/23 03:46:48;;;;;;;6.72;4.15;;;14.70;99.90;;;;;;5032476;28;20048;-67
2022/05/23 03:49:16;;;;;;;6.05;3.85;;;14.70;99.90;;;;;;5018444;28;20129;-67
2022/05/23 03:51:44;;;;;;;6.95;3.70;;;14.70;99.90;;;;;;5014704;28;20037;-67
2022/05/23 03:54:11;;;;;;;8.00;4.85;;;14.70;99.90;;;;;;5013458;28;20050;-66
2022/05/23 03:56:40;;;;;;;8.35;5.38;;;14.70;99.90;;;;;;5030896;28;20046;-67
2022/05/23 03:59:08;;;;;;;8.05;5.90;;;14.70;99.90;;;;;;5036516;28;20404;-67
2022/05/23 04:01:49;;;;;;;7.50;4.97;;;14.70;99.90;;;;;;5036731;28;20570;-66
2022/05/23 04:04:29;;;;;;;9.18;4.75;;;14.70;99.90;;;;;;5026678;28;20049;-67
2022/05/23 04:07:36;;;;;;;9.90;5.00;;;14.70;99.90;;;;;;5036296;28;20515;-66
2022/05/23 04:10:17;;;;;;;8.48;5.70;;;14.80;99.90;;;;;;5006035;28;20050;-68
2022/05/23 04:12:45;;;;;;;6.53;4.45;;;14.80;99.90;;;;;;5026436;28;20051;-67
2022/05/23 04:15:13;;;;;;;8.13;4.47;;;14.90;99.90;;;;;;5010223;28;20515;-67
2022/05/23 04:17:41;;;;;;;7.93;4.40;;;14.90;99.90;;;;;;5026387;28;20045;-67
2022/05/23 04:20:10;;;;;;;11.52;4.57;;;14.90;99.90;;;;;;5010075;28;20061;-67
2022/05/23 04:22:50;;;;;;;7.93;4.47;;;14.90;99.90;;;;;;4993421;28;20128;-67
2022/05/23 04:25:21;;;;;;;6.15;4.35;;;15.00;99.90;;;;;;5008171;28;20144;-67
2022/05/23 04:27:49;;;;;;;9.18;5.45;;;15.00;99.90;;;;;;5022674;28;20064;-67
2022/05/23 04:30:17;;;;;;;10.57;5.68;;;15.10;99.90;;;;;;5024000;28;20051;-67
2022/05/23 04:35:35;;;;;;;14.65;6.90;;;15.10;99.90;;;;;;5008533;28;20084;-67
2022/05/23 04:38:02;;;;;;;10.50;5.00;;;15.20;99.90;;;;;;5007363;28;20567;-67
2022/05/23 04:40:36;;;;;;;7.38;3.83;;;15.20;99.90;;;;;;5014954;28;20046;-67
2022/05/23 04:43:04;;;;;;;7.93;4.50;;;15.30;99.90;;;;;;5037980;28;20530;-67
2022/05/23 04:45:33;;;;;;;7.43;3.85;;;15.30;99.90;;;;;;5028508;28;20424;-68
2022/05/23 04:51:03;;;;;;;6.43;3.55;;;15.40;99.90;;;;;;5037125;28;20120;-67
2022/05/23 04:53:35;;;;;;;6.97;4.38;;;15.40;99.90;;;;;;5028048;28;20131;-67
2022/05/23 04:56:19;;;;;;;6.82;4.10;;;15.40;99.90;;;;;;5016966;28;20065;-67
2022/05/23 04:58:48;;;;;;;6.45;3.85;;;15.40;99.90;;;;;;5007234;28;20461;-67
2022/05/23 05:01:16;;;;;;;7.25;4.40;;;15.40;99.90;;;;;;5028697;28;20087;-67
2022/05/23 05:03:44;;;;;;;5.93;3.42;;;15.50;99.90;;;;;;5027213;28;20546;-67
2022/05/23 05:06:12;;;;;;;8.45;4.10;;;15.60;99.90;;;;;;5036319;28;20078;-67
2022/05/23 05:08:39;;;;;;;9.93;5.40;;;15.60;99.90;;;;;;5030047;28;20481;-67
2022/05/23 05:11:07;;;;;;;7.45;4.25;;;15.60;99.90;;;;;;5030140;28;20064;-67
2022/05/23 05:13:36;;;;;;;8.10;5.78;;;15.70;99.90;;;;;;5032227;28;20577;-67
2022/05/23 05:16:06;;;;;;;8.98;5.43;;;15.70;99.90;;;;;;5028374;28;20045;-67
2022/05/23 05:18:37;;;;;;;11.70;7.00;;;15.90;99.90;;;;;;5031753;28;20156;-67
2022/05/23 05:21:34;;;;;;;7.88;4.85;;;16.10;99.90;;;;;;5014972;28;20516;-67
2022/05/23 05:24:25;;;;;;;8.48;4.15;;;16.20;99.90;;;;;;5024759;28;20152;-69
2022/05/23 05:27:11;;;;;;;9.63;4.82;;;16.40;99.90;;;;;;5007625;28;20049;-67
2022/05/23 05:29:39;;;;;;;6.75;3.80;;;16.70;99.90;;;;;;5028935;28;20133;-66
2022/05/23 05:32:20;;;;;;;8.32;3.80;;;16.90;99.90;;;;;;5026481;28;20062;-68
2022/05/23 05:34:53;;;;;;;6.57;3.70;;;17.10;99.90;;;;;;5023467;28;20049;-68
2022/05/23 05:37:30;;;;;;;9.18;3.58;;;17.30;99.90;;;;;;5026912;28;20059;-68
2022/05/23 05:39:58;;;;;;;6.78;3.58;;;17.40;99.90;;;;;;5023693;28;20103;-67
2022/05/23 05:42:35;;;;;;;7.70;3.80;;;17.50;99.90;;;;;;4990382;28;20583;-66
2022/05/23 05:45:16;;;;;;;5.65;3.50;;;17.70;99.90;;;;;;5023783;28;20049;-67
2022/05/23 05:47:47;;;;;;;5.32;3.47;;;17.90;99.90;;;;;;5032324;28;20045;-67
2022/05/23 05:50:41;;;;;;;9.00;3.47;;;18.10;99.90;;;;;;5031090;28;20045;-68
2022/05/23 05:53:32;;;;;;;5.47;3.50;;;18.40;99.90;;;;;;5032269;28;20140;-67
2022/05/23 05:56:05;;;;;;;6.85;3.70;;;18.40;99.90;;;;;;5011229;28;20055;-67
2022/05/23 05:58:33;;;;;;;10.77;4.25;;;18.40;99.90;;;;;;5022352;28;20144;-66
2022/05/23 06:01:03;;;;;;;8.05;3.40;;;18.30;99.90;;;;;;5021064;28;20488;-67
2022/05/23 06:03:35;;;;;;;6.35;3.40;;;18.30;99.90;;;;;;5031968;28;20049;-68
2022/05/23 06:11:49;;;;;;;8.60;3.90;;;18.00;99.90;;;;;;5033269;28;20120;-67
2022/05/23 06:14:18;;;;;;;6.43;3.50;;;17.90;99.90;;;;;;5027893;28;20099;-67
2022/05/23 06:16:48;;;;;;;6.22;3.40;;;17.70;99.90;;;;;;5027543;28;20404;-67
2022/05/23 06:19:46;;;;;;;6.80;3.50;;;17.40;99.90;;;;;;5034979;28;20040;-68
2022/05/23 06:22:20;;;;;;;8.98;3.88;;;17.10;99.90;;;;;;5016808;28;20541;-67
2022/05/23 06:25:06;;;;;;;8.68;3.47;;;17.00;99.90;;;;;;5014093;28;20116;-68
2022/05/23 06:27:35;;;;;;;13.35;4.35;;;16.90;99.90;;;;;;5035720;28;20045;-69
2022/05/23 06:30:11;;;;;;;15.10;3.60;;;17.00;99.90;;;;;;5015567;28;20456;-69
2022/05/23 06:32:46;;;;;;;7.32;3.90;;;17.10;99.90;;;;;;5032645;28;20041;-69
2022/05/23 06:35:18;;;;;;;8.40;3.47;;;17.30;99.90;;;;;;5017788;28;20427;-69
2022/05/23 06:37:49;;;;;;;7.87;3.73;;;17.40;99.90;;;;;;5039999;28;20056;-70
2022/05/23 06:40:36;;;;;;;7.13;3.70;;;17.40;99.90;;;;;;5013582;28;20054;-69
2022/05/23 06:43:23;;;;;;;5.60;3.50;;;17.40;99.90;;;;;;5028155;28;20117;-69
2022/05/23 06:46:11;;;;;;;9.85;4.00;;;17.40;99.90;;;;;;5032926;28;20045;-69
2022/05/23 06:49:07;;;;;;;10.00;4.10;;;17.40;99.90;;;;;;5021769;28;20045;-69
2022/05/23 06:52:07;;;;;;;8.18;3.92;;;17.50;99.90;;;;;;5027169;28;20085;-69
2022/05/23 06:54:42;;;;;;;6.88;3.80;;;17.60;99.90;;;;;;5026351;28;20410;-69
2022/05/23 06:57:13;;;;;;;8.02;3.83;;;17.80;99.90;;;;;;5024652;28;20061;-69
2022/05/23 06:59:41;;;;;;;9.93;3.90;;;18.00;99.90;;;;;;5026905;28;20500;-69
2022/05/23 07:02:10;;;;;;;13.68;3.90;;;18.10;99.90;;;;;;5025199;28;20107;-69
2022/05/23 07:14:09;;;;;;;7.65;4.07;;;18.10;99.90;;;;;;5031661;28;20044;-69
2022/05/23 07:16:36;;;;;;;13.48;4.70;;;18.10;99.90;;;;;;5022847;28;20045;-69
2022/05/23 07:19:06;;;;;;;8.68;3.92;;;18.10;99.90;;;;;;5019960;28;20053;-71
2022/05/23 07:21:41;;;;;;;9.57;3.72;;;18.10;99.90;;;;;;5020177;28;20077;-69
2022/05/23 07:24:12;;;;;;;9.85;3.78;;;18.20;99.90;;;;;;5019972;28;20409;-70
2022/05/23 07:26:44;;;;;;;9.15;4.57;;;18.10;99.90;;;;;;5007252;28;20042;-70
2022/05/23 07:29:15;;;;;;;9.27;4.75;;;18.10;99.90;;;;;;5015308;28;20046;-71
2022/05/23 07:31:44;;;;;;;8.60;4.25;;;18.00;99.90;;;;;;5010646;28;20424;-71
2022/05/23 07:34:12;;;;;;;7.65;4.07;;;18.00;99.90;;;;;;5039873;28;20503;-70
2022/05/23 07:36:39;;;;;;;7.95;4.30;;;17.90;99.90;;;;;;5020848;28;20099;-70
2022/05/23 07:39:10;;;;;;;11.45;4.90;;;17.80;99.90;;;;;;5008826;28;20096;-70
2022/05/23 07:42:06;;;;;;;13.10;4.55;;;17.70;99.90;;;;;;5007951;28;20172;-71
2022/05/23 07:44:35;;;;;;;9.55;4.63;;;17.60;99.90;;;;;;5031093;28;20116;-70
2022/05/23 07:47:08;;;;;;;8.80;4.78;;;17.70;99.90;;;;;;5016144;28;20041;-71
2022/05/23 07:49:47;;;;;;;10.48;4.68;;;17.80;99.90;;;;;;5036382;28;20037;-69
2022/05/23 07:52:15;;;;;;;13.07;4.55;;;17.90;99.90;;;;;;5012570;28;20087;-69
2022/05/23 08:00:33;;;;;;;7.85;4.57;;;18.60;99.90;;;;;;5011537;28;20633;-70
2022/05/23 08:03:16;;;;;;;8.80;4.75;;;19.10;99.90;;;;;;5028958;28;20050;-72
2022/05/23 08:05:54;;;;;;;7.25;4.13;;;19.30;99.90;;;;;;5027468;28;20060;-71
2022/05/23 08:08:22;;;;;;;8.32;4.18;;;19.60;99.90;;;;;;5010415;28;20049;-71
2022/05/23 08:10:50;;;;;;;7.40;3.95;;;19.80;99.90;;;;;;5012063;28;20053;-71
2022/05/23 08:13:18;;;;;;;7.70;4.38;;;19.70;99.90;;;;;;5029455;28;20056;-70
2022/05/23 08:15:46;;;;;;;9.20;3.95;;;19.80;99.90;;;;;;5010723;28;20485;-71
2022/05/23 08:18:17;;;;;;;10.13;4.03;;;19.90;99.90;;;;;;5027519;28;20048;-71
2022/05/23 08:20:54;;;;;;;8.60;4.00;;;20.00;99.90;;;;;;5026246;28;20099;-71
2022/05/23 08:23:29;;;;;;;8.70;4.35;;;20.10;99.90;;;;;;5039619;28;20530;-71
2022/05/23 08:26:17;;;;;;;7.40;3.70;;;20.50;99.90;;;;;;5022018;28;20068;-71
2022/05/23 08:28:47;;;;;;;8.35;3.53;;;20.70;99.90;;;;;;5017542;28;20504;-71
2022/05/23 08:31:17;;;;;;;6.95;3.90;;;21.00;99.90;;;;;;5039015;28;20481;-71
2022/05/23 08:33:57;;;;;;;9.95;4.45;;;21.20;99.90;;;;;;5030939;28;20079;-71
2022/05/23 08:36:27;;;;;;;8.65;3.95;;;21.20;99.90;;;;;;5042606;28;20043;-71
2022/05/23 08:38:54;;;;;;;8.75;4.40;;;21.30;99.90;;;;;;5025796;28;20087;-71
2022/05/23 08:41:38;;;;;;;6.00;3.67;;;21.30;99.90;;;;;;5027226;28;20045;-71
2022/05/23 08:44:27;;;;;;;7.50;3.80;;;21.40;99.90;;;;;;5020143;28;20141;-71
2022/05/23 08:47:29;;;;;;;7.35;3.80;;;21.30;99.90;;;;;;5008826;28;20073;-68
2022/05/23 08:50:17;;;;;;;6.70;3.63;;;21.30;99.90;;;;;;5039834;28;20495;-68
2022/05/23 08:52:57;;;;;;;8.45;3.90;;;21.30;99.90;;;;;;5032494;28;20038;-68
2022/05/23 08:56:33;;;;;;;7.43;3.85;;;21.50;99.90;;;;;;5034013;28;20049;-67
2022/05/23 08:59:34;;;;;;;6.82;3.80;;;21.70;99.90;;;;;;5018403;28;20061;-68
2022/05/23 09:02:09;;;;;;;6.85;4.07;;;21.80;99.90;;;;;;5030154;28;20128;-68
2022/05/23 09:04:54;;;;;;;9.63;3.97;;;22.10;99.90;;;;;;5030422;28;20077;-68
2022/05/23 09:07:33;;;;;;;9.38;4.22;;;22.00;99.90;;;;;;5037623;28;20048;-68
2022/05/23 09:10:05;;;;;;;6.90;3.58;;;22.00;99.90;;;;;;5047176;28;20048;-69
2022/05/23 09:12:33;;;;;;;7.43;3.40;;;22.00;99.90;;;;;;5040449;28;20055;-67
2022/05/23 09:15:00;;;;;;;5.95;3.20;;;22.10;99.90;;;;;;5031167;28;20407;-68
2022/05/23 09:17:34;;;;;;;10.10;2.90;;;22.20;99.90;;;;;;5026669;28;20671;-67
2022/05/23 09:20:17;;;;;;;6.97;3.20;;;22.30;99.90;;;;;;5013784;28;20103;-68
2022/05/23 09:22:55;;;;;;;8.20;2.90;;;22.20;99.90;;;;;;5028093;28;20076;-67
2022/05/23 09:25:26;;;;;;;18.77;5.18;;;22.50;99.90;;;;;;5030203;28;20504;-68
2022/05/23 09:28:24;;;;;;;6.03;2.90;;;22.40;99.90;;;;;;5029295;28;20072;-67
2022/05/23 09:31:15;;;;;;;5.28;3.05;;;22.50;99.90;;;;;;5029127;28;20049;-67
2022/05/23 09:33:50;;;;;;;6.13;2.72;;;22.60;99.90;;;;;;5028876;28;20532;-67
2022/05/23 09:36:38;;;;;;;7.93;2.97;;;22.60;99.90;;;;;;5033150;28;20411;-67
2022/05/23 09:39:11;;;;;;;10.98;2.92;;;23.00;99.90;;;;;;5034222;28;20107;-67
2022/05/23 09:47:48;;;;;;;5.35;2.67;;;23.90;99.90;;;;;;5021815;28;20107;-67
2022/05/23 09:50:33;;;;;;;6.88;3.42;;;24.10;99.90;;;;;;5027135;28;20041;-67
2022/05/23 09:53:16;;;;;;;5.00;2.78;;;24.10;99.90;;;;;;5039184;28;20049;-67
2022/05/23 09:55:45;;;;;;;5.85;2.70;;;23.80;99.90;;;;;;5020386;28;20828;-67
2022/05/23 09:58:27;;;;;;;6.70;2.90;;;23.70;99.90;;;;;;5045776;28;20586;-67
2022/05/23 10:00:58;;;;;;;4.25;2.45;;;23.90;99.90;;;;;;5039412;28;20041;-67
2022/05/23 10:03:29;;;;;;;4.32;2.38;;;24.00;99.90;;;;;;5024419;28;20123;-67
2022/05/23 10:06:09;;;;;;;7.20;2.58;;;24.10;99.90;;;;;;5023870;28;20072;-67
2022/05/23 10:08:43;;;;;;;5.57;2.38;;;24.30;99.90;;;;;;5024010;28;20045;-67
2022/05/23 10:11:37;;;;;;;7.05;2.70;;;24.40;99.90;;;;;;5024846;28;20063;-67
2022/05/23 10:14:16;;;;;;;6.43;2.30;;;24.70;99.90;;;;;;5045195;28;20041;-68
2022/05/23 10:16:49;;;;;;;6.13;2.42;;;25.10;99.90;;;;;;5022488;28;20549;-68
2022/05/23 10:19:33;;;;;;;8.15;3.00;;;24.70;99.90;;;;;;5046228;28;20055;-67
2022/05/23 10:22:25;;;;;;;5.95;2.53;;;24.40;99.90;;;;;;5047125;28;20064;-67
2022/05/23 10:25:00;;;;;;;4.68;2.85;;;24.40;99.90;;;;;;5044127;28;20117;-67
2022/05/23 10:27:50;;;;;;;7.82;3.08;;;24.40;99.90;;;;;;5041905;28;20049;-67
2022/05/23 10:30:23;;;;;;;5.90;3.00;;;24.80;99.90;;;;;;5010433;28;20520;-67
2022/05/23 10:33:00;;;;;;;5.38;2.90;;;24.90;99.90;;;;;;5022572;28;20430;-67
2022/05/23 10:35:40;;;;;;;5.53;2.80;;;24.90;99.90;;;;;;5027492;28;20390;-67
2022/05/23 10:44:16;;;;;;;5.80;2.63;;;24.80;99.90;;;;;;5068258;28;20499;-68
2022/05/23 10:46:46;;;;;;;4.78;2.42;;;24.90;99.90;;;;;;5064230;28;20479;-68
2022/05/23 10:49:47;;;;;;;5.10;2.50;;;24.70;99.90;;;;;;5031559;28;20368;-67
2022/05/23 10:52:36;;;;;;;5.30;2.50;;;24.50;99.90;;;;;;5048369;28;20124;-66
2022/05/23 10:55:19;;;;;;;4.20;2.50;;;24.70;99.90;;;;;;5047140;28;20618;-66
2022/05/23 10:58:07;;;;;;;7.88;2.88;;;24.80;99.90;;;;;;5035996;28;20528;-66
2022/05/23 11:00:37;;;;;;;7.38;3.28;;;25.00;99.90;;;;;;5030215;28;20233;-66
2022/05/23 11:03:15;;;;;;;6.68;2.80;;;24.90;99.90;;;;;;5048159;28;20581;-66
2022/05/23 11:05:50;;;;;;;5.72;1.95;;;24.80;99.90;;;;;;5048282;28;20045;-65
2022/05/23 11:08:24;;;;;;;5.40;2.38;;;25.10;99.90;;;;;;5056988;28;20579;-66
2022/05/23 11:10:57;;;;;;;5.57;2.20;;;25.60;99.90;;;;;;5060501;28;20168;-66
2022/05/23 11:13:24;;;;;;;5.95;2.35;;;26.00;99.90;;;;;;5064805;28;20052;-67
2022/05/23 11:16:21;;;;;;;5.30;2.20;;;26.00;99.90;;;;;;5060451;28;20572;-66
2022/05/23 11:19:08;;;;;;;7.65;2.92;;;26.20;99.90;;;;;;5062031;28;20507;-65
2022/05/23 11:21:47;;;;;;;7.68;3.13;;;26.60;99.90;;;;;;5020077;28;20092;-66
2022/05/23 11:24:27;;;;;;;6.25;2.35;;;26.90;99.90;;;;;;5030380;28;20415;-66
2022/05/23 11:35:31;;;;;;;6.75;2.22;;;28.70;99.90;;;;;;5029820;28;20041;-66
2022/05/23 11:38:01;;;;;;;6.68;2.22;;;29.20;99.90;;;;;;5030058;28;20042;-66
2022/05/23 11:40:28;;;;;;;4.97;1.90;;;29.60;99.90;;;;;;5023401;28;20053;-67
2022/05/23 11:43:18;;;;;;;4.38;2.10;;;29.40;99.90;;;;;;5024206;28;20106;-66
2022/05/23 11:45:57;;;;;;;3.50;1.80;;;28.80;99.90;;;;;;5029641;28;20053;-66
2022/05/23 11:48:37;;;;;;;4.85;2.13;;;28.40;99.90;;;;;;5030151;28;20045;-66
2022/05/23 11:51:13;;;;;;;4.90;2.05;;;27.90;99.90;;;;;;5036537;28;20069;-66
2022/05/23 11:54:10;;;;;;;5.55;2.35;;;27.70;99.90;;;;;;5032177;28;20453;-66
2022/05/23 11:56:59;;;;;;;4.53;2.40;;;27.40;99.90;;;;;;5026562;28;20055;-66
2022/05/23 11:59:27;;;;;;;5.57;1.98;;;27.10;99.90;;;;;;5030367;28;20072;-67
2022/05/23 12:02:10;;;;;;;3.55;1.95;;;26.60;99.90;;;;;;5029165;28;20073;-66
2022/05/23 12:04:49;;;;;;;5.85;2.50;;;26.30;99.90;;;;;;5030077;28;20080;-66
2022/05/23 12:07:38;;;;;;;6.60;2.35;;;25.80;99.90;;;;;;5029272;28;20056;-66
2022/05/23 12:10:28;;;;;;;7.00;2.45;;;25.90;99.90;;;;;;5029798;28;20121;-67
2022/05/23 12:13:49;;;;;;;6.72;2.88;;;25.70;99.90;;;;;;5029770;28;20037;-67
2022/05/23 12:16:39;;;;;;;5.53;2.40;;;25.50;99.90;;;;;;5025376;28;20045;-66
2022/05/23 12:19:27;;;;;;;4.75;2.55;;;25.50;99.90;;;;;;5024869;28;20144;-66
2022/05/23 12:22:13;;;;;;;5.68;2.38;;;26.00;99.90;;;;;;5029825;28;20368;-66
2022/05/23 12:25:08;;;;;;;4.75;2.47;;;26.30;99.90;;;;;;5028828;28;20376;-66
2022/05/23 12:27:44;;;;;;;5.72;2.60;;;26.70;99.90;;;;;;5024333;28;20103;-66
2022/05/23 12:30:20;;;;;;;5.22;2.20;;;26.80;99.90;;;;;;5015256;28;20398;-66
2022/05/23 12:32:59;;;;;;;9.88;2.42;;;27.20;99.90;;;;;;5030612;28;20045;-67
2022/05/23 12:35:39;;;;;;;6.63;2.58;;;27.90;99.90;;;;;;5026338;28;20065;-67
2022/05/23 12:38:28;;;;;;;7.75;2.40;;;28.20;99.90;;;;;;5031363;28;20493;-67
2022/05/23 12:41:28;;;;;;;7.35;2.67;;;28.30;99.90;;;;;;5022990;28;20095;-67
2022/05/23 12:44:16;;;;;;;7.45;2.28;;;28.30;99.90;;;;;;5022005;28;20103;-66
2022/05/23 12:46:53;;;;;;;6.57;2.30;;;27.60;99.90;;;;;;5029424;28;20048;-66
2022/05/23 12:49:50;;;;;;;8.10;2.58;;;26.90;99.90;;;;;;5036839;28;20060;-67
2022/05/23 12:52:54;;;;;;;7.47;2.40;;;26.20;99.90;;;;;;5016816;28;20085;-67
2022/05/23 12:55:48;;;;;;;7.10;2.28;;;25.70;99.90;;;;;;5010043;28;20053;-66
2022/05/23 12:58:38;;;;;;;6.10;2.28;;;25.40;99.90;;;;;;5029353;28;20041;-66
2022/05/23 13:01:10;;;;;;;7.82;2.67;;;25.10;99.90;;;;;;5028221;28;20497;-68
2022/05/23 13:04:05;;;;;;;7.90;2.75;;;25.10;99.90;;;;;;5029231;28;20473;-67
2022/05/23 13:07:02;;;;;;;7.43;2.80;;;24.70;99.90;;;;;;5017407;28;20099;-67
2022/05/23 13:09:52;;;;;;;8.43;2.30;;;24.50;99.90;;;;;;5018278;28;20046;-66
2022/05/23 13:12:36;;;;;;;6.43;2.38;;;24.30;99.90;;;;;;5028340;28;20085;-65
2022/05/23 13:15:21;;;;;;;8.23;2.70;;;24.00;99.90;;;;;;5028510;28;20049;-66
2022/05/23 13:17:48;;;;;;;5.47;2.60;;;24.00;99.90;;;;;;5015480;28;20247;-67
2022/05/23 13:23:15;;;;;;;5.07;2.55;;;23.70;99.90;;;;;;5028352;28;20053;-66
2022/05/23 13:25:43;;;;;;;6.50;2.63;;;23.80;99.90;;;;;;5028782;28;20132;-66
2022/05/23 13:28:13;;;;;;;8.15;3.25;;;24.00;99.90;;;;;;5028350;28;20157;-67
2022/05/23 13:30:47;;;;;;;7.53;3.33;;;24.00;99.90;;;;;;5028076;28;20505;-66
2022/05/23 13:33:28;;;;;;;7.03;3.45;;;24.00;99.90;;;;;;5026819;28;20038;-67
2022/05/23 13:35:58;;;;;;;6.57;3.50;;;24.20;99.90;;;;;;5030106;28;20041;-67
2022/05/23 13:38:29;;;;;;;7.82;2.95;;;23.90;99.90;;;;;;5024163;28;20192;-67
2022/05/23 13:40:58;;;;;;;6.95;3.50;;;23.70;99.90;;;;;;5023951;28;20132;-67
2022/05/23 13:43:44;;;;;;;6.47;3.30;;;23.40;99.90;;;;;;5030772;28;20121;-67
2022/05/23 13:46:17;;;;;;;8.43;3.40;;;23.30;99.90;;;;;;5022118;28;20057;-67
2022/05/23 13:48:46;;;;;;;7.47;3.10;;;23.10;99.90;;;;;;5027859;28;20087;-67
2022/05/23 13:51:23;;;;;;;9.90;3.42;;;23.20;99.90;;;;;;5034253;28;20034;-67
2022/05/23 13:54:01;;;;;;;8.73;4.10;;;23.10;99.90;;;;;;5029676;28;20639;-67
2022/05/23 13:56:28;;;;;;;10.93;3.92;;;23.00;99.90;;;;;;5027460;28;20049;-66
2022/05/23 13:59:02;;;;;;;6.72;3.45;;;23.00;99.90;;;;;;5031697;28;20045;-66
2022/05/23 14:01:35;;;;;;;8.50;3.28;;;22.80;99.90;;;;;;5027896;28;20049;-66
2022/05/23 14:04:06;;;;;;;8.27;3.63;;;22.80;99.90;;;;;;5025989;28;20052;-66
2022/05/23 14:06:59;;;;;;;9.45;4.40;;;22.80;99.90;;;;;;5028318;28;20045;-67
2022/05/23 14:09:28;;;;;;;7.93;4.53;;;22.70;99.90;;;;;;5029147;28;20416;-66
2022/05/23 14:12:02;;;;;;;8.10;4.60;;;22.60;99.90;;;;;;5028830;28;20061;-66
2022/05/23 14:14:40;;;;;;;8.48;4.10;;;22.60;99.90;;;;;;5028813;28;20052;-66
2022/05/23 14:17:14;;;;;;;11.18;4.68;;;22.60;99.90;;;;;;5021193;28;20526;-66
2022/05/23 14:19:52;;;;;;;9.63;4.97;;;22.60;99.90;;;;;;5029868;28;20479;-66
2022/05/23 14:22:30;;;;;;;11.00;6.70;;;22.70;99.90;;;;;;5028492;28;20059;-66
2022/05/23 14:25:22;;;;;;;11.65;6.38;;;22.80;99.90;;;;;;5014414;28;20630;-66
2022/05/23 14:27:54;;;;;;;7.97;4.53;;;22.90;99.90;;;;;;5017827;28;20106;-66
2022/05/23 14:30:25;;;;;;;12.55;6.35;;;23.00;99.90;;;;;;5026640;28;20179;-66
2022/05/23 14:33:07;;;;;;;10.77;7.53;;;23.00;99.90;;;;;;5026543;28;20061;-67